Time;durP1;ratioP1;P1;durP2;ratioP2;P2;SDS_P1;SDS_P2;PMS_P1;PMS_P2;Temp;Humidity;BMP_temperature;BMP_pressure;BME280_temperature;BME280_humidity;BME280_pressure;Samples;Min_cycle;Max_cycle;Signal;HPM_P1;HPM_P2
2022/12/05 00:07:22;;;;;;;5.03;2.60;;;;;;;;;;21077701;28;20220;-69
2022/12/05 00:17:24;;;;;;;6.27;3.07;;;;;;;;;;21076467;28;20232;-69
2022/12/05 00:27:26;;;;;;;3.30;2.00;;;;;;;;;;21074430;28;20232;-69
2022/12/05 00:37:28;;;;;;;5.23;2.40;;;;;;;;;;21074398;28;20228;-69
2022/12/05 00:47:30;;;;;;;6.13;2.63;;;;;;;;;;21073762;28;20224;-69
2022/12/05 00:57:32;;;;;;;3.30;2.50;;;;;;;;;;21073925;28;20224;-69
2022/12/05 01:07:34;;;;;;;8.07;3.73;;;;;;;;;;21054269;28;20238;-68
2022/12/05 01:17:35;;;;;;;4.00;2.70;;;;;;;;;;21071560;28;20256;-68
2022/12/05 01:27:37;;;;;;;4.17;2.87;;;;;;;;;;21071630;28;20224;-68
2022/12/05 01:37:43;;;;;;;5.20;3.00;;;;;;;;;;21086575;28;20219;-68
2022/12/05 01:47:45;;;;;;;3.87;2.50;;;;;;;;;;20982458;28;20213;-70
2022/12/05 01:57:48;;;;;;;5.83;3.20;;;3.40;99.90;;;;;;21067946;28;20220;-70
2022/12/05 02:07:50;;;;;;;5.67;3.83;;;;;;;;;;21050405;28;20222;-70
2022/12/05 02:18:08;;;;;;;3.33;2.60;;;;;;;;;;21067533;28;20235;-70
2022/12/05 02:28:53;;;;;;;4.20;2.13;;;3.40;99.90;;;;;;21067314;28;20221;-70
2022/12/05 02:38:55;;;;;;;3.20;1.97;;;;;;;;;;21068249;28;20212;-69
2022/12/05 02:48:59;;;;;;;3.90;2.63;;;;;;;;;;21066316;28;20277;-70
2022/12/05 02:59:01;;;;;;;8.53;2.90;;;;;;;;;;21065963;28;20714;-69
2022/12/05 03:09:09;;;;;;;3.43;2.17;;;;;;;;;;21065312;28;20246;-70
2022/12/05 03:19:20;;;;;;;3.90;2.60;;;3.40;99.90;;;;;;21064806;28;20236;-70
2022/12/05 03:29:35;;;;;;;3.93;2.60;;;;;;;;;;21048409;28;20270;-70
2022/12/05 03:39:39;;;;;;;4.40;2.43;;;;;;;;;;21079578;28;20297;-69
2022/12/05 03:49:44;;;;;;;4.17;2.77;;;;;;;;;;21078353;28;20222;-69
2022/12/05 03:59:46;;;;;;;3.73;2.23;;;;;;;;;;21078211;28;20224;-69
2022/12/05 04:09:56;;;;;;;4.67;2.37;;;3.40;99.90;;;;;;21077400;28;20217;-69
2022/12/05 04:30:21;;;;;;;4.77;2.93;;;3.40;99.90;;;;;;21070074;28;20616;-69
2022/12/05 04:40:26;;;;;;;5.43;2.60;;;;;;;;;;21015221;28;20573;-69
2022/12/05 04:50:31;;;;;;;4.70;2.87;;;3.50;99.90;;;;;;21028358;28;20220;-69
2022/12/05 05:00:35;;;;;;;3.97;2.13;;;;;;;;;;21012113;28;20220;-71
2022/12/05 05:10:47;;;;;;;4.33;2.33;;;3.40;99.90;;;;;;20989049;28;20283;-69
2022/12/05 05:20:49;;;;;;;6.43;2.43;;;;;;;;;;20989199;28;20254;-68
2022/12/05 05:30:51;;;;;;;5.70;2.63;;;;;;;;;;21013623;28;20225;-70
2022/12/05 05:40:53;;;;;;;4.63;2.37;;;;;;;;;;20999233;28;20233;-70
2022/12/05 05:50:54;;;;;;;5.53;2.87;;;;;;;;;;20986369;28;20217;-69
2022/12/05 06:01:13;;;;;;;5.50;2.13;;;;;;;;;;20985863;28;20232;-69
2022/12/05 06:11:17;;;;;;;5.87;2.97;;;3.40;99.90;;;;;;20997151;28;20209;-69
2022/12/05 06:21:20;;;;;;;7.00;3.70;;;;;;;;;;20989317;28;20699;-71
2022/12/05 06:31:23;;;;;;;4.13;2.20;;;;;;;;;;21066210;28;20754;-69
2022/12/05 06:41:26;;;;;;;5.83;2.73;;;3.20;99.90;;;;;;21067184;28;20277;-68
2022/12/05 06:51:28;;;;;;;5.57;3.07;;;;;;;;;;21048679;28;20273;-68
2022/12/05 07:01:39;;;;;;;7.20;4.80;;;;;;;;;;21045819;28;20216;-69
2022/12/05 07:11:41;;;;;;;6.57;3.20;;;;;;;;;;21074829;28;20212;-69
2022/12/05 07:21:42;;;;;;;4.23;2.97;;;;;;;;;;21082111;28;20767;-68
2022/12/05 07:31:44;;;;;;;7.80;3.43;;;;;;;;;;21063310;28;20216;-69
2022/12/05 07:41:46;;;;;;;6.40;2.83;;;;;;;;;;21062027;28;20216;-69
2022/12/05 07:51:52;;;;;;;7.17;3.07;;;;;;;;;;21026541;28;20585;-68
2022/12/05 08:01:54;;;;;;;3.20;2.30;;;;;;;;;;21002244;28;20514;-69
2022/12/05 08:11:56;;;;;;;4.13;2.70;;;;;;;;;;20993470;28;20753;-69
2022/12/05 08:21:57;;;;;;;3.33;1.93;;;;;;;;;;20993648;28;20217;-68
2022/12/05 08:31:59;;;;;;;2.90;1.80;;;;;;;;;;20992542;28;20235;-69
2022/12/05 08:42:01;;;;;;;3.73;2.27;;;;;;;;;;21013879;28;20212;-69
2022/12/05 08:52:03;;;;;;;3.47;2.03;;;;;;;;;;21024951;22;20764;-68
2022/12/05 09:02:05;;;;;;;4.97;2.87;;;;;;;;;;20986454;28;20322;-70
2022/12/05 09:12:07;;;;;;;5.97;2.90;;;;;;;;;;20987556;28;20206;-69
2022/12/05 09:22:09;;;;;;;1.83;1.50;;;;;;;;;;20985409;28;20288;-70
2022/12/05 09:32:11;;;;;;;4.10;2.77;;;;;;;;;;20983984;28;20239;-69
2022/12/05 09:42:17;;;;;;;4.63;2.33;;;;;;;;;;20894146;28;20206;-69
2022/12/05 09:52:42;;;;;;;5.93;2.87;;;;;;;;;;20935504;28;20636;-69
2022/12/05 10:03:17;;;;;;;4.53;2.87;;;3.70;99.90;;;;;;21029032;28;20225;-69
2022/12/05 10:13:45;;;;;;;4.73;2.40;;;3.90;99.90;;;;;;21046659;28;20258;-69
2022/12/05 10:24:00;;;;;;;4.53;2.47;;;4.00;99.90;;;;;;21046774;28;20216;-69
2022/12/05 10:34:16;;;;;;;6.50;2.30;;;;;;;;;;21048803;28;20620;-70
2022/12/05 10:44:18;;;;;;;4.37;2.40;;;;;;;;;;21055869;28;20281;-69
2022/12/05 10:54:23;;;;;;;4.57;2.60;;;;;;;;;;21084099;28;20591;-70
2022/12/05 11:04:30;;;;;;;4.27;2.40;;;4.00;99.90;;;;;;21064709;28;20643;-69
2022/12/05 11:14:34;;;;;;;5.90;2.40;;;;;;;;;;21082540;28;20200;-69
2022/12/05 11:24:39;;;;;;;3.33;2.00;;;;;;;;;;21081168;28;20576;-69
2022/12/05 11:34:57;;;;;;;4.20;2.13;;;4.10;99.90;;;;;;21078431;28;20582;-67
2022/12/05 11:44:59;;;;;;;3.33;1.93;;;;;;;;;;21080605;28;20212;-69
2022/12/05 11:55:19;;;;;;;4.03;2.70;;;;;;;;;;21078785;28;20277;-69
2022/12/05 12:05:41;;;;;;;3.80;2.50;;;4.20;99.90;;;;;;21078047;28;20628;-69
2022/12/05 12:15:52;;;;;;;3.00;2.03;;;;;;;;;;21077069;28;20566;-68
2022/12/05 12:26:12;;;;;;;3.57;2.40;;;;;;;;;;21076436;28;20734;-69
2022/12/05 12:36:34;;;;;;;3.03;1.57;;;4.20;99.90;;;;;;21075738;28;20212;-69
2022/12/05 12:46:42;;;;;;;2.83;1.70;;;;;;;;;;21073095;28;20213;-69
2022/12/05 12:57:21;;;;;;;3.97;2.03;;;4.50;99.90;;;;;;21063200;28;20703;-69
2022/12/05 13:07:37;;;;;;;2.40;1.20;;;4.60;99.90;;;;;;21072763;28;20192;-69
2022/12/05 13:17:42;;;;;;;1.20;0.83;;;4.50;99.90;;;;;;21102285;28;20290;-69
2022/12/05 13:27:56;;;;;;;0.67;0.47;;;4.60;99.90;;;;;;21071486;28;20212;-69
2022/12/05 13:48:22;;;;;;;0.60;0.40;;;4.70;99.90;;;;;;21128673;28;20272;-69
2022/12/05 13:58:24;;;;;;;1.67;0.70;;;;;;;;;;21103297;28;20308;-69
2022/12/05 14:08:26;;;;;;;0.60;0.50;;;;;;;;;;21047925;28;20258;-68
2022/12/05 14:18:41;;;;;;;2.77;0.90;;;;;;;;;;21030588;28;20250;-69
2022/12/05 14:28:49;;;;;;;0.60;0.37;;;;;;;;;;21046804;28;20200;-69
2022/12/05 14:38:51;;;;;;;0.33;0.30;;;;;;;;;;21145886;28;20288;-69
2022/12/05 14:48:54;;;;;;;0.57;0.30;;;;;;;;;;21150491;28;20211;-68
2022/12/05 14:58:59;;;;;;;0.80;0.30;;;;;;;;;;21042311;22;20282;-67
2022/12/05 15:09:04;;;;;;;0.40;0.30;;;;;;;;;;20993844;28;20216;-67
2022/12/05 15:19:14;;;;;;;0.30;0.30;;;4.60;99.90;;;;;;20995843;28;20768;-67
2022/12/05 15:29:19;;;;;;;0.40;0.37;;;;;;;;;;20922260;28;20204;-67
2022/12/05 15:39:24;;;;;;;3.77;2.30;;;4.60;99.90;;;;;;20942113;28;20217;-69
2022/12/05 15:49:27;;;;;;;5.73;3.33;;;4.50;99.90;;;;;;20978780;28;20645;-68
2022/12/05 15:59:42;;;;;;;1.20;0.80;;;4.40;99.90;;;;;;21004501;28;20216;-67
2022/12/05 16:09:46;;;;;;;6.80;3.20;;;;;;;;;;21030365;28;20254;-67
2022/12/05 16:19:48;;;;;;;1.13;0.50;;;;;;;;;;21046430;28;20620;-67
2022/12/05 16:30:16;;;;;;;0.33;0.30;;;4.50;99.90;;;;;;21001917;28;20270;-67
2022/12/05 16:40:21;;;;;;;0.30;0.30;;;4.40;99.90;;;;;;20904708;28;20643;-67
2022/12/05 16:50:33;;;;;;;0.40;0.30;;;4.50;99.90;;;;;;20895252;28;20243;-67
2022/12/05 17:00:35;;;;;;;0.93;0.53;;;;;;;;;;20928521;28;20584;-67
2022/12/05 17:10:38;;;;;;;0.43;0.40;;;;;;;;;;20934830;28;20218;-67
2022/12/05 17:20:41;;;;;;;0.83;0.50;;;;;;;;;;20928177;28;20221;-67
2022/12/05 17:30:43;;;;;;;1.97;0.90;;;;;;;;;;20955505;28;20222;-67
2022/12/05 17:40:45;;;;;;;0.70;0.40;;;;;;;;;;20923983;28;20592;-67
2022/12/05 17:50:48;;;;;;;0.87;0.43;;;;;;;;;;20949593;28;20225;-67
2022/12/05 18:00:51;;;;;;;1.10;0.63;;;;;;;;;;20940513;28;20221;-67
2022/12/05 18:10:53;;;;;;;1.83;1.00;;;;;;;;;;20935831;28;20213;-67
2022/12/05 18:21:09;;;;;;;0.90;0.70;;;;;;;;;;20946145;28;20229;-68
2022/12/05 18:31:13;;;;;;;0.80;0.60;;;;;;;;;;20929805;28;20294;-67
2022/12/05 18:41:15;;;;;;;1.10;0.70;;;;;;;;;;20934510;28;20213;-68
2022/12/05 18:51:20;;;;;;;0.90;0.60;;;4.20;99.90;;;;;;20940945;28;20247;-68
2022/12/05 19:01:23;;;;;;;2.77;1.07;;;;;;;;;;20955764;28;20209;-70
2022/12/05 19:11:27;;;;;;;1.13;0.77;;;;;;;;;;20944663;28;20739;-70
2022/12/05 19:21:31;;;;;;;0.70;0.60;;;4.40;99.90;;;;;;20967670;28;20283;-69
2022/12/05 19:31:36;;;;;;;1.00;0.60;;;4.20;99.90;;;;;;20912420;28;20600;-68
2022/12/05 19:41:38;;;;;;;0.37;0.30;;;;;;;;;;20923637;28;20224;-69
2022/12/05 19:51:41;;;;;;;0.27;0.27;;;;;;;;;;20912905;28;20217;-69
2022/12/05 20:01:44;;;;;;;0.27;0.23;;;;;;;;;;21034750;28;20228;-69
2022/12/05 20:11:49;;;;;;;0.50;0.40;;;4.30;99.90;;;;;;21060637;28;20274;-69
2022/12/05 20:21:54;;;;;;;0.57;0.40;;;;;;;;;;21019652;28;20751;-69
2022/12/05 20:31:57;;;;;;;0.80;0.43;;;;;;;;;;21057237;28;20237;-70
2022/12/05 20:41:59;;;;;;;0.30;0.30;;;;;;;;;;21047212;28;20232;-68
2022/12/05 20:52:01;;;;;;;0.43;0.43;;;;;;;;;;21024144;28;20258;-67
2022/12/05 21:02:04;;;;;;;0.67;0.40;;;;;;;;;;21039450;28;20305;-68
2022/12/05 21:12:06;;;;;;;0.50;0.40;;;;;;;;;;21036138;28;20241;-68
2022/12/05 21:22:08;;;;;;;1.13;0.70;;;;;;;;;;21099100;28;20288;-69
2022/12/05 21:32:10;;;;;;;1.93;0.90;;;;;;;;;;21107177;28;20253;-70
2022/12/05 21:42:13;;;;;;;0.70;0.60;;;;;;;;;;21033530;28;20291;-68
2022/12/05 21:52:15;;;;;;;1.67;0.93;;;;;;;;;;20920807;22;20226;-66
2022/12/05 22:02:17;;;;;;;3.40;1.40;;;;;;;;;;20904345;28;20234;-66
2022/12/05 22:12:19;;;;;;;3.03;2.10;;;;;;;;;;20868754;28;20268;-66
2022/12/05 22:22:21;;;;;;;3.67;1.70;;;;;;;;;;20900690;28;20248;-67
2022/12/05 22:32:23;;;;;;;2.23;1.17;;;;;;;;;;20869987;28;20214;-66
2022/12/05 22:42:27;;;;;;;2.60;1.80;;;4.30;99.90;;;;;;20885350;28;20688;-66
2022/12/05 22:52:30;;;;;;;2.20;1.30;;;;;;;;;;20919242;28;20283;-66
2022/12/05 23:02:31;;;;;;;3.33;1.50;;;;;;;;;;20862734;28;20225;-66
2022/12/05 23:12:34;;;;;;;1.83;0.90;;;;;;;;;;20867617;28;20291;-66
2022/12/05 23:22:35;;;;;;;1.00;0.70;;;;;;;;;;20851475;28;20214;-66
2022/12/05 23:32:38;;;;;;;1.50;0.80;;;;;;;;;;20883185;28;20964;-66
2022/12/05 23:42:40;;;;;;;1.30;0.73;;;;;;;;;;20862771;28;20292;-66
2022/12/05 23:52:42;;;;;;;1.30;0.67;;;;;;;;;;20926178;28;20233;-66
